Terminal Aerodrome Forecast
Issued by NWS

Current Version | Previous Version | Text Only | Print | Product List | Glossary On
Versions: 1 2 3 4 5 6 7 8 9 10 11 12 13 14 15 16
000
FTAK31 PAFA 250009 AAA
TAFAMC
TAF AMD
PAMC 250009Z 2500/2524 17014KT 6SM -RA BR FEW012 OVC035
     FM250300 19009G15KT P6SM -SHRA SCT035 BKN050
     FM250800 18006KT P6SM VCSH SCT035 BKN050 BKN100
     FM251600 18012G18KT 5SM -SHRA BR BKN035 OVC050=

USA.gov is the U.S. government's official web portal to all federal, state and local government web resources and services.